createdAt,value
2019-04-04T00:01:42.993Z,13.83
2019-04-04T00:04:11.260Z,13.55
2019-04-04T00:06:39.494Z,12.18
2019-04-04T00:09:09.815Z,11.57
2019-04-04T00:11:38.022Z,13.65
2019-04-04T00:14:06.261Z,15.08
2019-04-04T00:16:34.488Z,14.75
2019-04-04T00:19:02.720Z,13.20
2019-04-04T00:21:31.983Z,13.58
2019-04-04T00:24:00.899Z,13.53
2019-04-04T00:26:29.224Z,14.50
2019-04-04T00:28:57.446Z,14.85
2019-04-04T00:31:25.693Z,13.43
2019-04-04T00:33:55.791Z,13.05
2019-04-04T00:36:23.885Z,14.53
2019-04-04T00:38:52.140Z,12.90
2019-04-04T00:41:20.369Z,14.13
2019-04-04T00:43:49.903Z,12.78
2019-04-04T00:46:18.789Z,11.90
2019-04-04T00:48:47.029Z,12.13
2019-04-04T00:51:15.248Z,12.33
2019-04-04T00:53:43.595Z,13.53
2019-04-04T00:56:11.888Z,13.43
2019-04-04T00:58:40.116Z,13.85
2019-04-04T01:01:08.430Z,13.48
2019-04-04T01:03:36.661Z,15.58
2019-04-04T01:06:04.897Z,12.73
2019-04-04T01:08:33.149Z,12.05
2019-04-04T01:11:01.449Z,13.03
2019-04-04T01:13:29.685Z,13.93
2019-04-04T01:15:57.909Z,13.78
2019-04-04T01:18:26.134Z,14.60
2019-04-04T01:20:54.359Z,13.78
2019-04-04T01:23:22.598Z,14.25
2019-04-04T01:25:50.841Z,13.90
2019-04-04T01:28:19.128Z,13.13
2019-04-04T01:30:47.418Z,12.15
2019-04-04T01:33:15.685Z,14.45
2019-04-04T01:35:43.948Z,13.05
2019-04-04T01:38:12.168Z,13.88
2019-04-04T01:40:40.413Z,14.30
2019-04-04T01:43:09.369Z,14.43
2019-04-04T01:45:38.265Z,14.07
2019-04-04T01:48:06.490Z,12.85
2019-04-04T01:50:34.738Z,12.98
2019-04-04T01:53:02.961Z,14.78
2019-04-04T01:55:32.991Z,15.13
2019-04-04T01:58:01.137Z,13.70
2019-04-04T02:00:29.369Z,15.70
2019-04-04T02:02:57.601Z,14.87
2019-04-04T02:05:27.102Z,15.03
2019-04-04T02:07:55.844Z,15.08
2019-04-04T02:10:24.112Z,13.98
2019-04-04T02:12:52.386Z,15.45
2019-04-04T02:15:20.613Z,15.58
2019-04-04T02:17:48.843Z,16.12
2019-04-04T02:20:17.068Z,17.17
2019-04-04T02:22:45.299Z,15.00
2019-04-04T02:25:13.547Z,19.32
2019-04-04T02:27:41.800Z,15.00
2019-04-04T02:30:14.626Z,15.58
2019-04-04T02:32:41.603Z,16.62
2019-04-04T02:35:10.774Z,16.80
2019-04-04T02:37:39.785Z,16.85
2019-04-04T02:40:08.874Z,16.65
2019-04-04T02:42:38.345Z,19.62
2019-04-04T02:45:06.706Z,15.15
2019-04-04T02:47:35.113Z,16.52
2019-04-04T02:50:04.003Z,17.00
2019-04-04T02:52:32.306Z,15.75
2019-04-04T02:55:00.545Z,16.42
2019-04-04T02:57:28.772Z,16.30
2019-04-04T02:59:57.018Z,19.90
2019-04-04T03:02:25.253Z,18.70
2019-04-04T03:04:53.488Z,18.42
2019-04-04T03:07:21.777Z,17.35
2019-04-04T03:09:50.037Z,17.20
2019-04-04T03:12:18.267Z,17.98
2019-04-04T03:14:50.152Z,18.05
2019-04-04T03:17:16.497Z,17.02
2019-04-04T03:19:44.749Z,17.52
2019-04-04T03:22:13.037Z,18.85
2019-04-04T03:24:44.908Z,19.42
2019-04-04T03:27:11.282Z,21.42
2019-04-04T03:29:39.525Z,21.93
2019-04-04T03:32:13.660Z,20.17
2019-04-04T03:34:37.730Z,20.72
2019-04-04T03:37:07.239Z,20.35
2019-04-04T03:39:35.987Z,20.27
2019-04-04T03:42:07.103Z,19.80
2019-04-04T03:44:34.199Z,21.70
2019-04-04T03:47:02.439Z,21.60
2019-04-04T03:49:30.676Z,25.25
2019-04-04T03:51:58.917Z,23.32
2019-04-04T03:54:27.598Z,21.95
2019-04-04T03:56:55.925Z,25.30
2019-04-04T03:59:24.159Z,26.25
2019-04-04T04:01:52.380Z,24.50
2019-04-04T04:04:20.623Z,21.97
2019-04-04T04:06:48.844Z,22.75
2019-04-04T04:09:17.084Z,23.50
2019-04-04T04:11:45.451Z,23.67
2019-04-04T04:14:21.600Z,25.15
2019-04-04T04:16:49.600Z,25.37
2019-04-04T04:19:17.821Z,26.48
2019-04-04T04:21:46.063Z,22.70
2019-04-04T04:24:14.290Z,24.55
2019-04-04T04:26:42.530Z,24.27
2019-04-04T04:29:10.781Z,24.27
2019-04-04T04:31:39.081Z,25.25
2019-04-04T04:34:11.965Z,26.30
2019-04-04T04:36:40.181Z,26.25
2019-04-04T04:39:08.426Z,24.87
2019-04-04T04:41:36.670Z,26.17
2019-04-04T04:44:05.761Z,26.05
2019-04-04T04:46:34.810Z,28.70
2019-04-04T04:49:04.041Z,26.57
2019-04-04T04:51:32.685Z,33.85
2019-04-04T04:54:00.933Z,30.68
2019-04-04T04:56:30.987Z,28.47
2019-04-04T04:58:59.109Z,29.12
2019-04-04T05:01:27.344Z,27.67
2019-04-04T05:03:56.537Z,30.88
2019-04-04T05:06:25.593Z,29.72
2019-04-04T05:08:53.833Z,32.55
2019-04-04T05:11:22.070Z,35.68
2019-04-04T05:13:50.335Z,33.42
2019-04-04T05:16:18.609Z,33.83
2019-04-04T05:18:48.177Z,33.63
2019-04-04T05:21:24.878Z,35.95
2019-04-04T05:23:46.967Z,36.38
2019-04-04T05:26:15.983Z,49.05
2019-04-04T05:28:44.346Z,34.60
2019-04-04T05:31:12.582Z,36.17
2019-04-04T05:33:40.811Z,30.57
2019-04-04T05:36:09.105Z,35.10
2019-04-04T05:38:37.353Z,33.63
2019-04-04T05:41:05.572Z,30.72
2019-04-04T05:43:35.281Z,31.82
2019-04-04T05:46:03.770Z,30.92
2019-04-04T05:48:32.001Z,34.90
2019-04-04T05:51:00.230Z,32.65
2019-04-04T05:53:28.470Z,32.35
2019-04-04T05:55:57.280Z,29.90
2019-04-04T05:58:25.506Z,29.35
2019-04-04T06:00:53.940Z,28.92
2019-04-04T06:03:22.244Z,28.75
2019-04-04T06:05:50.528Z,31.40
2019-04-04T06:08:18.759Z,31.85
2019-04-04T06:10:47.996Z,27.75
2019-04-04T06:13:17.113Z,30.82
2019-04-04T06:15:45.353Z,28.40
2019-04-04T06:18:13.595Z,26.65
2019-04-04T06:20:41.812Z,32.15
2019-04-04T06:23:10.037Z,32.15
2019-04-04T06:25:38.277Z,27.77
2019-04-04T06:28:06.511Z,28.35
2019-04-04T06:30:42.976Z,28.00
2019-04-04T06:33:05.035Z,28.77
2019-04-04T06:35:34.141Z,28.98
2019-04-04T06:38:02.377Z,28.05
2019-04-04T06:40:30.947Z,26.15
2019-04-04T06:42:59.220Z,28.12
2019-04-04T06:45:29.706Z,25.62
2019-04-04T06:47:58.143Z,23.65
2019-04-04T06:50:26.519Z,26.97
2019-04-04T06:52:56.519Z,25.45
2019-04-04T06:55:28.467Z,28.02
2019-04-04T06:57:54.735Z,25.17
2019-04-04T07:00:23.016Z,24.90
2019-04-04T07:02:55.260Z,23.92
2019-04-04T07:05:21.238Z,29.20
2019-04-04T07:07:49.461Z,25.62
2019-04-04T07:10:21.024Z,23.50
2019-04-04T07:12:48.941Z,22.35
2019-04-04T07:15:17.405Z,24.30
2019-04-04T07:17:45.636Z,24.72
2019-04-04T07:20:16.672Z,26.73
2019-04-04T07:22:43.868Z,23.65
2019-04-04T07:25:12.100Z,22.35
2019-04-04T07:27:40.332Z,23.95
2019-04-04T07:30:08.568Z,22.20
2019-04-04T07:32:36.841Z,22.22
2019-04-04T07:35:06.411Z,23.07
2019-04-04T07:37:34.647Z,23.25
2019-04-04T07:40:04.409Z,20.60
2019-04-04T07:42:32.928Z,21.23
2019-04-04T07:45:01.188Z,23.92
2019-04-04T07:47:29.457Z,23.50
2019-04-04T07:49:57.747Z,21.77
2019-04-04T07:52:26.061Z,22.17
2019-04-04T07:54:54.305Z,21.77
2019-04-04T07:57:22.553Z,22.87
2019-04-04T08:00:10.199Z,19.95
2019-04-04T08:02:38.441Z,23.52
2019-04-04T08:05:08.554Z,23.25
2019-04-04T08:07:36.773Z,22.42
2019-04-04T08:10:06.138Z,23.55
2019-04-04T08:12:53.801Z,23.07
2019-04-04T08:15:22.028Z,22.75
2019-04-04T08:17:50.272Z,22.75
2019-04-04T08:20:18.500Z,20.45
2019-04-04T08:22:46.763Z,22.07
2019-04-04T08:25:14.989Z,21.70
2019-04-04T08:27:43.221Z,24.07
2019-04-04T08:30:11.449Z,23.55
2019-04-04T08:32:39.702Z,20.88
2019-04-04T08:35:07.928Z,20.60
2019-04-04T08:37:36.159Z,19.15
2019-04-04T08:40:07.502Z,21.27
2019-04-04T08:42:35.796Z,23.92
2019-04-04T08:45:06.068Z,19.32
2019-04-04T08:47:34.309Z,21.02
2019-04-04T08:50:02.551Z,21.68
2019-04-04T08:52:30.824Z,21.55
2019-04-04T08:54:59.135Z,20.68
2019-04-04T08:57:27.423Z,20.82
2019-04-04T08:59:55.661Z,23.35
2019-04-04T09:02:23.892Z,24.00
2019-04-04T09:04:54.892Z,20.08
2019-04-04T09:07:23.145Z,26.05
2019-04-04T09:09:51.485Z,23.10
2019-04-04T09:12:20.061Z,20.25
2019-04-04T09:14:48.314Z,21.50
2019-04-04T09:17:16.612Z,20.95
2019-04-04T09:19:44.920Z,24.50
2019-04-04T09:22:13.164Z,26.90
2019-04-04T09:24:41.408Z,22.77
2019-04-04T09:27:09.636Z,27.65
2019-04-04T09:29:37.864Z,24.85
2019-04-04T09:32:06.112Z,24.77
2019-04-04T09:34:34.349Z,24.70
2019-04-04T09:37:02.579Z,27.93
2019-04-04T09:39:30.821Z,24.12
2019-04-04T09:41:59.076Z,29.57
2019-04-04T09:44:27.323Z,25.08
2019-04-04T09:47:05.264Z,27.13
2019-04-04T09:49:25.543Z,27.70
2019-04-04T09:51:53.778Z,26.50
2019-04-04T09:54:22.025Z,31.17
2019-04-04T09:56:50.252Z,31.95
2019-04-04T09:59:18.492Z,27.00
2019-04-04T10:01:46.717Z,32.15
2019-04-04T10:04:14.958Z,28.12
2019-04-04T10:06:43.636Z,25.97
2019-04-04T10:09:15.930Z,25.70
2019-04-04T10:11:43.932Z,26.55
2019-04-04T10:14:12.204Z,26.00
2019-04-04T10:16:40.435Z,26.27
2019-04-04T10:19:08.677Z,27.95
2019-04-04T10:21:36.904Z,26.42
2019-04-04T10:24:05.177Z,31.00
2019-04-04T10:26:33.416Z,25.52
2019-04-04T10:29:01.644Z,29.63
2019-04-04T10:31:30.023Z,27.82
2019-04-04T10:33:58.322Z,29.70
2019-04-04T10:36:26.604Z,33.02
2019-04-04T10:38:54.834Z,28.30
2019-04-04T10:41:23.093Z,30.23
2019-04-04T10:43:51.344Z,28.02
2019-04-04T10:46:19.568Z,30.92
2019-04-04T10:48:47.801Z,31.45
2019-04-04T10:51:16.053Z,32.13
2019-04-04T10:53:44.366Z,31.65
2019-04-04T10:56:12.588Z,30.70
2019-04-04T10:58:40.833Z,31.87
2019-04-04T11:01:09.064Z,32.75
2019-04-04T11:03:37.304Z,33.05
2019-04-04T11:06:05.539Z,30.10
2019-04-04T11:08:33.789Z,31.20
2019-04-04T11:11:02.050Z,32.35
2019-04-04T11:13:33.727Z,32.48
2019-04-04T11:16:00.334Z,34.18
2019-04-04T11:18:28.578Z,34.00
2019-04-04T11:20:56.808Z,31.65
2019-04-04T11:23:25.045Z,31.30
2019-04-04T11:25:53.354Z,30.10
2019-04-04T11:28:21.575Z,32.48
2019-04-04T11:30:49.814Z,32.42
2019-04-04T11:33:18.044Z,31.62
2019-04-04T11:35:46.280Z,33.92
2019-04-04T11:38:14.509Z,29.92
2019-04-04T11:40:42.773Z,29.65
2019-04-04T11:43:11.000Z,31.00
2019-04-04T11:45:39.316Z,31.00
2019-04-04T11:48:07.556Z,35.00
2019-04-04T11:50:35.805Z,31.30
2019-04-04T11:53:04.041Z,29.65
2019-04-04T11:55:32.279Z,33.23
2019-04-04T11:58:00.517Z,31.05
2019-04-04T12:00:30.467Z,29.77
2019-04-04T12:02:58.729Z,30.00
2019-04-04T12:05:26.961Z,32.13
2019-04-04T12:07:55.207Z,30.17
2019-04-04T12:10:23.440Z,29.90
2019-04-04T12:12:51.681Z,32.40
2019-04-04T12:15:19.926Z,33.63
2019-04-04T12:17:48.177Z,30.70
2019-04-04T12:20:16.406Z,29.45
2019-04-04T12:22:44.666Z,30.43
2019-04-04T12:25:12.917Z,29.67
2019-04-04T12:27:41.160Z,31.62
2019-04-04T12:30:09.666Z,29.67
2019-04-04T12:32:37.893Z,26.60
2019-04-04T12:35:06.130Z,31.57
2019-04-04T12:37:34.369Z,30.62
2019-04-04T12:40:02.625Z,29.63
2019-04-04T12:42:30.605Z,34.98
2019-04-04T12:44:59.741Z,28.25
2019-04-04T12:47:27.978Z,26.42
2019-04-04T12:49:56.237Z,29.18
2019-04-04T12:52:24.485Z,29.90
2019-04-04T12:54:52.724Z,28.80
2019-04-04T12:57:20.956Z,29.72
2019-04-04T12:59:49.300Z,27.75
2019-04-04T13:02:17.552Z,27.10
2019-04-04T13:04:45.801Z,28.05
2019-04-04T13:07:14.034Z,28.47
2019-04-04T13:09:42.274Z,27.73
2019-04-04T13:12:10.505Z,33.10
2019-04-04T13:14:38.742Z,28.32
2019-04-04T13:17:06.982Z,30.50
2019-04-04T13:19:35.217Z,27.02
2019-04-04T13:22:03.526Z,26.42
2019-04-04T13:24:31.756Z,27.50
2019-04-04T13:27:00.212Z,28.02
2019-04-04T13:29:28.470Z,29.35
2019-04-04T13:31:56.708Z,29.45
2019-04-04T13:34:24.938Z,34.25
2019-04-04T13:36:53.208Z,34.50
2019-04-04T13:39:21.508Z,28.83
2019-04-04T13:41:49.757Z,31.10
2019-04-04T13:44:18.030Z,31.00
2019-04-04T13:46:46.260Z,37.05
2019-04-04T13:49:14.513Z,28.65
2019-04-04T13:51:42.748Z,29.60
2019-04-04T13:54:10.984Z,35.43
2019-04-04T13:56:39.217Z,27.62
2019-04-04T13:59:07.466Z,28.17
2019-04-04T14:01:35.690Z,26.87
2019-04-04T14:04:03.922Z,30.32
2019-04-04T14:06:32.148Z,24.67
2019-04-04T14:09:00.390Z,28.87
2019-04-04T14:11:28.627Z,31.93
2019-04-04T14:13:58.792Z,33.45
2019-04-04T14:16:26.899Z,30.85
2019-04-04T14:18:55.118Z,32.67
2019-04-04T14:21:23.720Z,28.27
2019-04-04T14:23:53.008Z,23.22
2019-04-04T14:26:21.726Z,26.97
2019-04-04T14:28:49.955Z,25.30
2019-04-04T14:31:18.223Z,23.52
2019-04-04T14:33:46.621Z,21.52
2019-04-04T14:36:14.899Z,21.42
2019-04-04T14:38:43.180Z,21.30
2019-04-04T14:41:11.981Z,22.20
2019-04-04T14:43:43.010Z,21.50
2019-04-04T14:46:11.252Z,26.85
2019-04-04T14:48:42.244Z,21.68
2019-04-04T14:51:09.441Z,19.95
2019-04-04T14:53:37.668Z,24.15
2019-04-04T14:56:05.908Z,19.25
2019-04-04T14:58:34.122Z,21.30
2019-04-04T15:01:02.356Z,21.35
2019-04-04T15:03:30.592Z,18.55
2019-04-04T15:05:58.812Z,18.48
2019-04-04T15:08:27.054Z,18.80
2019-04-04T15:10:55.322Z,18.57
2019-04-04T15:13:23.542Z,19.25
2019-04-04T15:16:14.041Z,21.17
2019-04-04T15:18:42.274Z,23.38
2019-04-04T15:21:10.488Z,17.45
2019-04-04T15:23:38.734Z,17.32
2019-04-04T15:26:09.660Z,19.10
2019-04-04T15:28:36.942Z,19.02
2019-04-04T15:31:05.232Z,20.45
2019-04-04T15:33:33.461Z,18.25
2019-04-04T15:36:01.689Z,17.48
2019-04-04T15:38:30.114Z,15.85
2019-04-04T15:40:58.378Z,23.10
2019-04-04T15:43:26.621Z,18.17
2019-04-04T15:45:54.904Z,18.40
2019-04-04T15:48:23.145Z,16.15
2019-04-04T15:50:51.410Z,16.40
2019-04-04T15:53:19.620Z,15.23
2019-04-04T15:55:47.853Z,18.07
2019-04-04T15:58:16.080Z,17.73
2019-04-04T16:00:44.772Z,17.10
2019-04-04T16:03:13.008Z,16.95
2019-04-04T16:05:41.241Z,19.45
2019-04-04T16:08:09.505Z,17.67
2019-04-04T16:10:37.746Z,20.82
2019-04-04T16:13:05.956Z,16.00
2019-04-04T16:15:34.221Z,19.62
2019-04-04T16:18:02.510Z,17.30
2019-04-04T16:20:30.860Z,16.25
2019-04-04T16:22:59.109Z,18.82
2019-04-04T16:25:27.316Z,15.83
2019-04-04T16:27:55.569Z,15.13
2019-04-04T16:30:23.847Z,15.90
2019-04-04T16:32:52.086Z,14.43
2019-04-04T16:35:20.331Z,14.73
2019-04-04T16:37:48.552Z,15.65
2019-04-04T16:40:17.765Z,19.50
2019-04-04T16:42:46.015Z,13.48
2019-04-04T16:45:14.237Z,12.30
2019-04-04T16:47:42.479Z,14.00
2019-04-04T16:50:10.709Z,10.60
2019-04-04T16:52:38.931Z,19.90
2019-04-04T16:55:07.169Z,9.88
2019-04-04T16:57:35.384Z,10.05
2019-04-04T17:00:05.152Z,10.15
2019-04-04T17:02:33.400Z,8.73
2019-04-04T17:05:04.798Z,8.63
2019-04-04T17:07:33.033Z,10.95
2019-04-04T17:10:01.270Z,7.55
2019-04-04T17:12:29.509Z,10.70
2019-04-04T17:14:57.721Z,6.50
2019-04-04T17:17:25.948Z,6.45
2019-04-04T17:19:54.169Z,7.15
2019-04-04T17:22:22.416Z,7.10
2019-04-04T17:24:50.633Z,8.18
2019-04-04T17:27:18.885Z,10.30
2019-04-04T17:29:47.499Z,16.42
2019-04-04T17:32:15.931Z,10.43
2019-04-04T17:34:44.337Z,9.68
2019-04-04T17:37:12.834Z,9.95
2019-04-04T17:39:41.600Z,10.03
2019-04-04T17:42:09.895Z,12.82
2019-04-04T17:44:38.102Z,10.93
2019-04-04T17:47:06.634Z,10.18
2019-04-04T17:49:35.243Z,9.83
2019-04-04T17:52:04.114Z,12.07
2019-04-04T17:54:32.469Z,9.70
2019-04-04T17:57:00.932Z,11.22
2019-04-04T17:59:30.420Z,10.30
2019-04-04T18:01:58.758Z,12.00
2019-04-04T18:04:27.039Z,12.65
2019-04-04T18:06:55.303Z,15.43
2019-04-04T18:09:31.593Z,14.68
2019-04-04T18:11:53.545Z,15.48
2019-04-04T18:14:22.034Z,14.95
2019-04-04T18:16:50.363Z,14.07
2019-04-04T18:19:18.994Z,18.02
2019-04-04T18:21:47.707Z,14.43
2019-04-04T18:24:16.597Z,15.50
2019-04-04T18:26:45.383Z,15.80
2019-04-04T18:29:14.377Z,17.10
2019-04-04T18:32:04.362Z,13.28
2019-04-04T18:34:34.528Z,16.25
2019-04-04T18:37:24.805Z,16.73
2019-04-04T18:39:54.692Z,13.75
2019-04-04T18:42:24.186Z,14.70
2019-04-04T18:44:55.020Z,15.90
2019-04-04T18:47:24.639Z,15.00
2019-04-04T18:49:54.395Z,14.95
2019-04-04T18:52:29.106Z,14.43
2019-04-04T18:54:59.512Z,14.58
2019-04-04T18:57:29.169Z,13.58
2019-04-04T18:59:59.067Z,12.85
2019-04-04T19:02:31.124Z,12.33
2019-04-04T19:05:01.123Z,11.68
2019-04-04T19:07:39.145Z,11.90
2019-04-04T19:10:02.483Z,13.83
2019-04-04T19:12:32.274Z,14.85
2019-04-04T19:15:02.319Z,14.25
2019-04-04T19:17:31.980Z,17.07
2019-04-04T19:20:02.008Z,13.45
2019-04-04T19:25:21.358Z,13.03
2019-04-04T19:27:51.242Z,14.58
2019-04-04T19:30:21.081Z,13.80
2019-04-04T19:32:52.356Z,13.83
2019-04-04T19:35:22.005Z,15.45
2019-04-04T19:37:59.855Z,14.50
2019-04-04T19:40:22.997Z,13.60
2019-04-04T19:42:53.060Z,14.00
2019-04-04T19:45:22.844Z,12.33
2019-04-04T19:47:52.691Z,14.38
2019-04-04T19:50:22.287Z,14.33
2019-04-04T19:52:52.335Z,14.00
2019-04-04T19:55:23.875Z,13.35
2019-04-04T19:57:53.317Z,14.65
2019-04-04T20:00:23.082Z,14.35
2019-04-04T20:02:52.754Z,16.12
2019-04-04T20:05:22.738Z,15.05
2019-04-04T20:07:53.705Z,15.68
2019-04-04T20:10:23.537Z,15.50
2019-04-04T20:12:53.530Z,15.30
2019-04-04T20:15:25.561Z,15.03
2019-04-04T20:17:55.599Z,18.07
2019-04-04T20:20:25.181Z,17.02
2019-04-04T20:22:54.910Z,16.80
2019-04-04T20:25:25.033Z,17.23
2019-04-04T20:27:55.279Z,17.10
2019-04-04T20:30:38.419Z,17.90
2019-04-04T20:33:08.394Z,16.50
2019-04-04T20:35:37.334Z,18.20
2019-04-04T20:38:06.122Z,17.95
2019-04-04T20:40:35.217Z,17.27
2019-04-04T20:43:05.541Z,18.00
2019-04-04T20:45:35.501Z,19.62
2019-04-04T20:48:04.087Z,18.17
2019-04-04T20:50:32.498Z,17.40
2019-04-04T20:53:00.738Z,16.77
2019-04-04T20:55:28.982Z,17.50
2019-04-04T20:57:57.206Z,18.67
2019-04-04T21:00:25.524Z,18.52
2019-04-04T21:02:53.747Z,19.27
2019-04-04T21:05:21.993Z,19.23
2019-04-04T21:07:50.221Z,19.70
2019-04-04T21:10:18.458Z,18.95
2019-04-04T21:12:46.701Z,21.15
2019-04-04T21:15:16.569Z,19.35
2019-04-04T21:17:44.798Z,20.15
2019-04-04T21:20:14.269Z,20.05
2019-04-04T21:22:42.544Z,20.57
2019-04-04T21:25:11.042Z,19.32
2019-04-04T21:27:39.371Z,18.48
2019-04-04T21:30:07.676Z,20.88
2019-04-04T21:32:35.898Z,19.65
2019-04-04T21:35:06.008Z,22.32
2019-04-04T21:37:34.221Z,20.82
2019-04-04T21:40:02.460Z,21.10
2019-04-04T21:42:30.714Z,19.60
2019-04-04T21:44:58.966Z,21.27
2019-04-04T21:47:27.236Z,19.95
2019-04-04T21:49:55.544Z,20.27
2019-04-04T21:52:25.430Z,19.95
2019-04-04T21:54:53.751Z,19.52
2019-04-04T21:57:21.965Z,20.08
2019-04-04T21:59:51.861Z,21.17
2019-04-04T22:02:24.521Z,19.77
2019-04-04T22:05:03.740Z,22.73
2019-04-04T22:07:32.008Z,20.68
2019-04-04T22:10:00.271Z,21.35
2019-04-04T22:12:28.567Z,20.77
2019-04-04T22:14:56.780Z,21.87
2019-04-04T22:17:25.038Z,21.40
2019-04-04T22:19:53.270Z,20.52
2019-04-04T22:22:21.513Z,22.75
2019-04-04T22:24:49.995Z,22.07
2019-04-04T22:27:18.236Z,22.70
2019-04-04T22:29:46.484Z,20.05
2019-04-04T22:32:14.879Z,21.60
2019-04-04T22:34:43.178Z,22.10
2019-04-04T22:37:11.511Z,22.42
2019-04-04T22:39:39.786Z,20.35
2019-04-04T22:42:08.033Z,22.65
2019-04-04T22:44:36.262Z,21.73
2019-04-04T22:47:04.569Z,21.93
2019-04-04T22:49:32.792Z,21.30
2019-04-04T22:52:01.032Z,22.58
2019-04-04T22:54:45.353Z,22.82
2019-04-04T22:59:41.239Z,21.45
2019-04-04T23:02:09.482Z,22.40
2019-04-04T23:04:37.717Z,21.10
2019-04-04T23:07:05.992Z,20.90
2019-04-04T23:09:34.209Z,22.60
2019-04-04T23:12:02.455Z,23.65
2019-04-04T23:14:30.679Z,22.65
2019-04-04T23:16:58.961Z,19.98
2019-04-04T23:19:27.191Z,23.20
2019-04-04T23:21:55.418Z,20.65
2019-04-04T23:24:23.664Z,19.65
2019-04-04T23:26:51.903Z,18.62
2019-04-04T23:29:20.208Z,21.95
2019-04-04T23:31:48.459Z,20.52
2019-04-04T23:34:16.697Z,19.55
2019-04-04T23:36:44.939Z,20.35
2019-04-04T23:39:13.168Z,22.02
2019-04-04T23:41:41.400Z,19.23
2019-04-04T23:44:09.641Z,20.35
2019-04-04T23:46:37.869Z,22.32
2019-04-04T23:49:06.088Z,20.23
2019-04-04T23:51:34.347Z,18.48
2019-04-04T23:54:02.574Z,18.10
2019-04-04T23:56:30.818Z,20.68
2019-04-04T23:58:59.045Z,19.67
